Olen, Belgium
Current Conditions -  °F | °C
As of 9:25 AM on Sunday 26 Oct 2014 (Local Time) from EBDT Reporting Station
Overcast Overcast  
Wind Chill: 54°   Ceiling: 4300
Heat Index: 54°   Visibility: 6mi
Dew Point: 50°   Wind: 6mph
Humidity: 88%   Direction: 200°SSW
Pressure: 30.27"   Gusts: NA
Location:  51.14°N, 4.86°E
Report Text: EBDT 260725Z AUTO 20005KT 9999 OVC043/// 12/10 Q1025 BLU
Loading
Personal Weather Stations






























Interactive Weather Map
Tropical Storm Tracking
New forecast layout! Learn more

10-Day Weather Forecast

Advertisements
Track Severe Weather on mobile